TAF KUKI
KUKI 081728Z 0818/0918 00000KT P6SM OVC011 FM081900 VRB03KT 6SM BR OVC020 FM090300 VRB02KT 6SM BR VCSH BKN015 OVC050 FM090800 VRB02KT 4SM -RA BR BKN015 OVC035=
METAR KUKI
WC KUKI
WS KUKI
WV KUKI